Time;durP1;ratioP1;P1;durP2;ratioP2;P2;SDS_P1;SDS_P2;PMS_P1;PMS_P2;Temp;Humidity;BMP_temperature;BMP_pressure;BME280_temperature;BME280_humidity;BME280_pressure;Samples;Min_cycle;Max_cycle;Signal;HPM_P1;HPM_P2
2023/07/01 00:02:09;;;;;;;8.38;3.28;;;;;;;15.31;71.21;98259.94;5059094;28;20480;-82
2023/07/01 00:04:34;;;;;;;6.35;3.53;;;;;;;15.27;71.37;98260.81;5059764;28;20096;-81
2023/07/01 00:07:00;;;;;;;5.82;3.38;;;;;;;15.02;71.17;98253.97;5058293;28;20060;-82
2023/07/01 00:09:25;;;;;;;7.72;2.95;;;;;;;15.26;71.20;98268.13;5061480;28;20075;-81
2023/07/01 00:11:51;;;;;;;5.93;3.17;;;;;;;15.13;71.52;98254.59;5059556;28;20070;-82
2023/07/01 00:14:17;;;;;;;7.70;3.17;;;;;;;15.14;71.58;98254.31;5056365;28;20021;-81
2023/07/01 00:16:42;;;;;;;8.52;3.08;;;;;;;15.14;71.63;98256.19;5034614;28;20040;-81
2023/07/01 00:19:08;;;;;;;4.57;2.70;;;;;;;15.17;71.34;98252.91;5043918;28;20083;-81
2023/07/01 00:21:33;;;;;;;7.63;2.95;;;;;;;15.05;71.71;98242.59;5058893;28;20067;-81
2023/07/01 00:23:59;;;;;;;4.40;3.20;;;;;;;15.02;71.79;98248.59;5066267;28;20518;-81
2023/07/01 00:26:25;;;;;;;5.15;2.95;;;;;;;14.93;71.63;98235.00;5062956;28;20033;-81
2023/07/01 00:28:52;;;;;;;10.68;3.45;;;;;;;14.94;71.79;98241.16;5034490;28;20028;-81
2023/07/01 00:31:18;;;;;;;5.30;3.08;;;;;;;14.94;71.48;98231.22;5055427;28;20074;-81
2023/07/01 00:33:43;;;;;;;11.75;3.50;;;;;;;14.98;71.85;98229.53;5063513;28;20500;-81
2023/07/01 00:36:08;;;;;;;12.00;3.33;;;;;;;14.91;71.93;98223.75;5064016;28;20039;-81
2023/07/01 00:38:34;;;;;;;7.30;3.67;;;;;;;14.97;71.68;98236.03;5049855;28;20055;-81
2023/07/01 00:40:59;;;;;;;6.78;3.78;;;;;;;14.92;72.21;98228.03;5057462;28;20044;-81
2023/07/01 00:43:25;;;;;;;7.43;3.60;;;;;;;14.96;72.11;98239.78;5053821;28;20065;-81
2023/07/01 00:45:50;;;;;;;12.10;3.47;;;;;;;14.94;72.05;98230.41;5051751;28;20608;-81
2023/07/01 00:48:24;;;;;;;7.80;3.80;;;;;;;14.90;72.07;98227.53;5059735;28;20024;-82
2023/07/01 00:50:53;;;;;;;7.72;3.30;;;;;;;14.77;72.39;98208.63;5061453;28;20484;-81
2023/07/01 00:53:19;;;;;;;9.90;3.50;;;;;;;14.89;72.18;98222.44;5051682;28;20033;-81
2023/07/01 00:55:44;;;;;;;6.88;3.63;;;;;;;14.88;71.93;98218.94;5063780;28;20069;-81
2023/07/01 00:58:10;;;;;;;5.75;3.10;;;;;;;14.88;72.44;98210.88;5057426;28;20025;-82
2023/07/01 01:00:35;;;;;;;10.02;3.30;;;;;;;14.71;72.59;98197.19;5060081;28;20028;-82
2023/07/01 01:03:15;;;;;;;10.30;3.85;;;;;;;14.81;72.54;98210.44;5046307;28;20021;-81
2023/07/01 01:05:47;;;;;;;8.95;3.08;;;;;;;14.77;72.20;98198.69;5055185;28;20036;-82
2023/07/01 01:08:20;;;;;;;8.65;4.00;;;;;;;14.62;72.73;98204.28;5061270;28;20484;-82
2023/07/01 01:10:49;;;;;;;5.65;3.22;;;;;;;14.68;72.77;98200.44;5053903;28;20044;-82
2023/07/01 01:13:16;;;;;;;5.60;3.47;;;;;;;14.69;72.35;98202.03;5056495;28;20044;-82
2023/07/01 01:15:42;;;;;;;11.05;5.05;;;;;;;14.60;73.02;98195.72;5055226;28;20033;-81
2023/07/01 01:18:10;;;;;;;7.85;3.65;;;;;;;14.59;72.65;98185.28;5055302;28;20047;-81
2023/07/01 01:20:38;;;;;;;7.97;3.58;;;;;;;14.66;72.90;98197.25;5054745;28;20047;-81
2023/07/01 01:23:13;;;;;;;7.70;3.00;;;;;;;14.62;73.12;98188.16;5054153;28;20029;-82
2023/07/01 01:25:58;;;;;;;13.30;4.00;;;;;;;14.56;72.67;98183.97;5056555;28;20060;-82
2023/07/01 01:28:24;;;;;;;6.32;3.58;;;;;;;14.56;72.66;98188.53;5053415;28;20063;-81
2023/07/01 01:30:50;;;;;;;10.90;3.70;;;;;;;14.52;72.58;98174.91;5051862;28;20033;-82
2023/07/01 01:33:16;;;;;;;9.45;3.92;;;;;;;14.51;73.08;98184.03;5052704;28;20039;-82
2023/07/01 01:35:42;;;;;;;4.90;2.90;;;;;;;14.55;73.02;98171.63;5055258;28;20033;-82
2023/07/01 01:38:19;;;;;;;3.58;2.90;;;;;;;14.56;72.61;98169.72;5049919;28;20123;-82
2023/07/01 01:41:07;;;;;;;4.40;3.40;;;;;;;14.46;72.57;98165.28;5053783;28;20055;-82
2023/07/01 01:43:56;;;;;;;4.25;3.28;;;;;;;14.58;72.50;98167.56;5064333;28;20025;-82
2023/07/01 01:46:24;;;;;;;5.85;3.70;;;;;;;14.46;72.85;98165.28;5055929;28;20043;-82
2023/07/01 01:48:55;;;;;;;5.38;3.45;;;;;;;14.49;73.18;98158.53;5058357;28;20043;-81
2023/07/01 01:51:22;;;;;;;4.97;3.65;;;;;;;14.40;73.26;98169.13;5057631;28;20036;-82
2023/07/01 01:53:50;;;;;;;6.53;3.80;;;;;;;14.41;73.03;98161.88;5055763;28;20040;-82
2023/07/01 01:56:16;;;;;;;6.78;3.60;;;;;;;14.38;73.29;98147.16;5050482;28;20032;-82
2023/07/01 01:58:42;;;;;;;7.35;3.75;;;;;;;14.41;72.96;98143.09;5056305;28;20036;-81
2023/07/01 02:01:07;;;;;;;5.30;3.67;;;;;;;14.47;73.02;98142.72;5053706;28;20119;-82
2023/07/01 02:03:33;;;;;;;6.90;3.05;;;;;;;14.46;73.30;98149.19;5055794;28;20032;-82
2023/07/01 02:05:58;;;;;;;10.40;3.78;;;;;;;14.43;73.51;98154.34;5047521;28;20069;-82
2023/07/01 02:08:23;;;;;;;6.00;3.47;;;;;;;14.49;73.41;98142.44;5057967;28;20038;-81
2023/07/01 02:10:49;;;;;;;4.75;4.28;;;;;;;14.62;72.76;98147.06;5059210;28;20029;-82
2023/07/01 02:13:14;;;;;;;6.82;3.17;;;;;;;14.56;73.14;98138.31;5056522;28;20322;-82
2023/07/01 02:15:40;;;;;;;3.72;3.40;;;;;;;14.52;73.29;98126.56;5053859;28;20040;-81
2023/07/01 02:18:05;;;;;;;8.55;3.67;;;;;;;14.64;73.36;98137.63;5043741;28;20070;-82
2023/07/01 02:20:31;;;;;;;10.82;3.88;;;;;;;14.62;73.37;98130.97;5059700;28;20115;-82
2023/07/01 02:22:57;;;;;;;7.47;3.25;;;;;;;14.65;72.96;98131.19;5062609;28;20357;-82
2023/07/01 02:25:22;;;;;;;6.30;3.15;;;;;;;14.73;72.98;98121.66;5050184;28;20029;-81
2023/07/01 02:27:47;;;;;;;6.25;3.83;;;;;;;14.62;73.00;98125.59;5040419;28;20037;-81
2023/07/01 02:30:13;;;;;;;5.13;2.80;;;;;;;14.69;73.24;98132.19;5053718;28;20080;-82
2023/07/01 02:32:38;;;;;;;3.85;3.28;;;;;;;14.77;72.90;98120.78;5047048;28;20040;-81
2023/07/01 02:35:05;;;;;;;4.20;3.20;;;;;;;14.89;72.73;98131.88;5055423;28;20376;-81
2023/07/01 02:37:30;;;;;;;5.43;3.95;;;;;;;14.77;72.78;98130.72;5057688;28;20531;-82
2023/07/01 02:39:55;;;;;;;3.72;2.97;;;;;;;14.75;73.24;98114.09;5058136;28;20032;-81
2023/07/01 02:42:21;;;;;;;5.22;3.10;;;;;;;14.73;73.10;98116.28;5053129;28;20435;-82
2023/07/01 02:44:47;;;;;;;7.70;3.65;;;;;;;14.72;73.35;98123.53;5044194;28;20021;-81
2023/07/01 02:47:13;;;;;;;8.57;3.75;;;;;;;14.72;73.21;98120.84;5054179;28;20024;-82
2023/07/01 02:49:40;;;;;;;7.15;3.30;;;;;;;14.80;73.07;98125.59;5060779;28;20039;-81
2023/07/01 02:52:08;;;;;;;8.10;3.20;;;;;;;14.83;72.90;98113.47;5027356;28;20147;-81
2023/07/01 02:54:33;;;;;;;10.23;3.33;;;;;;;14.86;72.83;98116.34;5033628;28;20131;-81
2023/07/01 02:56:59;;;;;;;8.00;3.63;;;;;;;14.88;73.00;98119.53;5047885;28;20028;-82
2023/07/01 02:59:24;;;;;;;8.52;3.97;;;;;;;14.75;73.30;98103.34;5047787;28;20475;-81
2023/07/01 03:01:49;;;;;;;5.43;3.03;;;;;;;14.89;72.66;98102.34;5041449;28;20085;-81
2023/07/01 03:04:15;;;;;;;6.85;3.22;;;;;;;14.89;73.09;98102.34;5045952;28;20078;-82
2023/07/01 03:06:40;;;;;;;19.00;3.72;;;;;;;14.90;72.93;98103.09;5047845;28;20501;-82
2023/07/01 03:09:07;;;;;;;6.50;3.40;;;;;;;14.91;73.17;98105.53;5051089;28;20368;-82
2023/07/01 03:11:36;;;;;;;6.10;3.33;;;;;;;14.96;73.14;98101.94;5039621;28;20036;-82
2023/07/01 03:14:02;;;;;;;8.07;3.38;;;;;;;14.92;73.36;98098.22;5049810;28;20029;-82
2023/07/01 03:16:30;;;;;;;9.60;4.20;;;;;;;14.93;72.89;98092.59;5054370;28;20086;-82
2023/07/01 03:18:56;;;;;;;7.72;3.53;;;;;;;14.84;73.21;98077.41;5045462;28;20039;-82
2023/07/01 03:21:22;;;;;;;7.68;3.53;;;;;;;14.90;73.45;98087.78;5049997;28;20515;-82
2023/07/01 03:23:47;;;;;;;8.30;3.60;;;;;;;14.70;74.31;98085.44;5045452;28;20485;-82
2023/07/01 03:26:12;;;;;;;15.60;4.38;;;;;;;14.50;74.70;98075.03;5036939;28;20435;-82
2023/07/01 03:28:38;;;;;;;10.20;4.30;;;;;;;14.75;74.27;98068.44;5043759;28;20136;-81
2023/07/01 03:31:04;;;;;;;7.30;3.53;;;;;;;14.81;73.57;98065.38;5057824;28;20029;-82
2023/07/01 03:33:29;;;;;;;9.15;3.60;;;;;;;14.79;73.72;98072.94;5066607;28;20069;-82
2023/07/01 03:35:55;;;;;;;4.00;3.22;;;;;;;14.94;73.46;98066.50;5055340;28;20041;-82
2023/07/01 03:38:20;;;;;;;8.52;3.38;;;;;;;14.95;73.82;98065.41;5052631;28;20120;-82
2023/07/01 03:40:47;;;;;;;7.03;3.25;;;;;;;14.89;74.45;98053.16;5050650;28;20032;-82
2023/07/01 03:43:12;;;;;;;5.40;4.22;;;;;;;14.96;73.73;98051.66;5061762;28;20033;-81
2023/07/01 03:45:38;;;;;;;6.38;3.60;;;;;;;14.95;73.80;98058.16;5043014;28;20036;-81
2023/07/01 03:48:04;;;;;;;8.93;3.40;;;;;;;14.97;74.03;98063.22;5056683;28;20036;-81
2023/07/01 03:50:30;;;;;;;11.55;4.50;;;;;;;14.99;73.88;98051.09;5058272;28;20051;-81
2023/07/01 03:52:55;;;;;;;9.02;3.85;;;;;;;15.02;73.65;98061.25;5055042;28;20044;-81
2023/07/01 03:55:20;;;;;;;7.20;3.40;;;;;;;14.89;74.36;98045.91;5045209;28;20384;-81
2023/07/01 03:57:46;;;;;;;6.65;3.50;;;;;;;14.89;74.23;98050.47;5051719;28;20035;-81
2023/07/01 04:00:17;;;;;;;7.00;3.55;;;;;;;14.94;73.93;98053.84;5043122;28;20032;-81
2023/07/01 04:02:47;;;;;;;9.95;3.42;;;;;;;14.98;74.00;98046.78;5044868;28;20040;-81
2023/07/01 04:05:12;;;;;;;11.57;3.95;;;;;;;14.95;74.50;98042.03;5050981;28;20029;-81
2023/07/01 04:07:40;;;;;;;10.23;4.05;;;;;;;14.91;74.80;98045.59;5055118;28;20064;-81
2023/07/01 04:10:06;;;;;;;6.35;3.50;;;;;;;14.99;74.25;98031.47;5054032;28;20377;-81
2023/07/01 04:12:35;;;;;;;10.75;3.65;;;;;;;14.98;75.26;98041.41;5058516;28;20036;-81
2023/07/01 04:15:01;;;;;;;4.55;3.63;;;;;;;14.99;75.08;98036.84;5058275;28;20028;-81
2023/07/01 04:17:28;;;;;;;12.68;3.88;;;;;;;15.01;74.94;98034.66;5053613;28;20417;-81
2023/07/01 04:19:54;;;;;;;9.20;3.75;;;;;;;15.07;74.63;98030.78;5054895;28;20020;-81
2023/07/01 04:22:20;;;;;;;6.18;3.25;;;;;;;15.13;75.29;98029.59;5049264;28;20029;-81
2023/07/01 04:24:45;;;;;;;7.10;3.50;;;;;;;15.17;74.39;98021.75;5061442;28;20657;-81
2023/07/01 04:27:10;;;;;;;8.18;4.18;;;;;;;15.18;75.00;98032.19;5057106;28;20036;-82
2023/07/01 04:29:36;;;;;;;7.03;3.90;;;;;;;15.27;74.36;98026.91;5046768;28;20409;-81
2023/07/01 04:32:01;;;;;;;11.27;4.13;;;;;;;14.87;77.95;98010.44;5058273;28;20202;-81
2023/07/01 04:34:26;;;;;;;7.82;4.18;;;;;;;15.18;74.97;98026.81;5056708;28;20074;-81
2023/07/01 04:36:52;;;;;;;8.90;3.17;;;;;;;15.23;74.47;98004.41;5055490;28;20083;-81
2023/07/01 04:39:19;;;;;;;8.73;3.50;;;;;;;15.24;75.49;98028.31;5060898;28;20086;-81
2023/07/01 04:41:44;;;;;;;6.65;4.10;;;;;;;15.29;75.40;98019.38;5057413;28;20035;-82
2023/07/01 04:44:09;;;;;;;5.57;3.60;;;;;;;15.50;74.30;98017.88;5031280;28;20029;-82
2023/07/01 04:46:35;;;;;;;8.27;3.42;;;;;;;15.50;74.93;98018.69;5066015;28;20032;-82
2023/07/01 04:49:00;;;;;;;6.05;3.63;;;;;;;15.47;74.96;98016.59;5066274;28;20036;-81
2023/07/01 04:51:26;;;;;;;10.00;3.78;;;;;;;15.24;77.04;98001.44;5050832;28;20043;-81
2023/07/01 04:53:51;;;;;;;10.55;4.30;;;;;;;15.52;76.02;98004.94;5051581;28;20032;-82
2023/07/01 04:56:17;;;;;;;6.90;4.00;;;;;;;15.47;75.53;97989.69;5056896;28;20030;-81
2023/07/01 04:58:42;;;;;;;5.90;4.68;;;;;;;15.20;78.14;97999.66;5054687;28;20079;-81
2023/07/01 05:01:07;;;;;;;4.53;3.97;;;;;;;15.23;77.84;97985.59;5056423;28;20119;-81
2023/07/01 05:03:33;;;;;;;10.55;4.72;;;;;;;15.06;78.88;97996.94;5057539;28;20028;-81
2023/07/01 05:05:58;;;;;;;6.22;5.00;;;;;;;15.34;76.60;97987.78;5053819;28;20130;-80
2023/07/01 05:08:24;;;;;;;8.52;4.43;;;;;;;15.20;78.34;97997.72;5043636;28;20761;-81
2023/07/01 05:10:49;;;;;;;4.80;4.25;;;;;;;14.96;78.20;97991.78;5057322;28;20032;-81
2023/07/01 05:13:15;;;;;;;7.93;4.25;;;;;;;15.17;77.99;97992.16;5057337;28;20025;-81
2023/07/01 05:15:40;;;;;;;10.27;5.75;;;;;;;15.12;78.70;97994.94;5058693;28;20111;-81
2023/07/01 05:18:06;;;;;;;8.85;4.93;;;;;;;15.23;79.58;98001.72;5050466;28;20035;-80
2023/07/01 05:20:31;;;;;;;8.18;4.25;;;;;;;15.57;76.79;97997.53;5064329;28;20633;-82
2023/07/01 05:22:56;;;;;;;10.75;5.10;;;;;;;15.38;78.82;97987.97;5055414;28;20119;-81
2023/07/01 05:25:22;;;;;;;9.43;4.60;;;;;;;15.08;78.64;97975.94;5058616;28;20029;-81
2023/07/01 05:27:47;;;;;;;7.97;4.15;;;;;;;15.84;76.64;97990.50;5063727;28;20890;-81
2023/07/01 05:30:13;;;;;;;6.85;4.10;;;;;;;16.22;73.84;97975.66;5061803;28;20031;-81
2023/07/01 05:32:38;;;;;;;4.22;3.83;;;;;;;16.11;74.18;97974.28;5067233;28;20073;-81
2023/07/01 05:35:04;;;;;;;3.92;3.50;;;;;;;16.63;72.75;97980.84;5043274;28;20075;-81
2023/07/01 05:37:29;;;;;;;7.25;3.88;;;;;;;16.65;72.68;97982.13;5072192;28;20028;-81
2023/07/01 05:39:54;;;;;;;8.50;4.10;;;;;;;16.83;71.60;97978.44;5058233;28;20721;-81
2023/07/01 05:42:20;;;;;;;4.60;3.90;;;;;;;16.75;73.39;97973.81;5049313;28;20085;-81
2023/07/01 05:44:45;;;;;;;6.32;3.25;;;;;;;16.99;71.79;97973.44;5048687;28;20500;-81
2023/07/01 05:47:10;;;;;;;4.80;4.03;;;;;;;17.01;71.90;97972.03;5062360;28;20040;-81
2023/07/01 05:49:36;;;;;;;9.50;4.00;;;;;;;17.00;72.96;97980.41;5050823;28;20036;-81
2023/07/01 05:52:01;;;;;;;7.13;4.75;;;;;;;16.96;71.95;97977.53;5031941;28;20068;-81
2023/07/01 05:54:26;;;;;;;8.98;3.60;;;;;;;17.03;71.74;97980.59;5052491;28;20028;-81
2023/07/01 05:56:52;;;;;;;9.70;4.35;;;;;;;17.04;72.08;97973.28;5056529;28;20836;-82
2023/07/01 05:59:17;;;;;;;7.07;4.05;;;;;;;17.06;72.53;97962.97;5053581;28;20491;-81
2023/07/01 06:01:42;;;;;;;5.35;3.75;;;;;;;17.25;70.39;97966.22;5042097;28;20511;-81
2023/07/01 06:04:08;;;;;;;7.43;3.80;;;;;;;17.35;71.26;97960.53;5047450;28;20095;-82
2023/07/01 06:06:33;;;;;;;6.03;4.40;;;;;;;17.45;71.51;97962.94;5039867;28;20074;-82
2023/07/01 06:08:59;;;;;;;4.10;3.63;;;;;;;17.60;70.02;97956.34;5058480;28;20037;-82
2023/07/01 06:11:24;;;;;;;7.18;4.00;;;;;;;17.59;71.62;97969.03;5059541;28;20037;-82
2023/07/01 06:13:50;;;;;;;5.25;3.80;;;;;;;17.65;71.18;97965.06;5048948;28;20029;-82
2023/07/01 06:16:16;;;;;;;8.20;3.17;;;;;;;17.76;69.39;97955.56;5053141;28;20025;-81
2023/07/01 06:18:42;;;;;;;4.78;4.07;;;;;;;17.68;69.51;97948.25;5065138;28;20028;-81
2023/07/01 06:21:08;;;;;;;7.97;3.20;;;;;;;17.65;69.75;97954.28;5064187;28;20073;-81
2023/07/01 06:23:35;;;;;;;5.38;3.35;;;;;;;17.75;69.37;97953.97;5047749;28;20470;-82
2023/07/01 06:26:00;;;;;;;5.47;3.65;;;;;;;17.78;69.05;97955.22;5051733;28;20036;-82
2023/07/01 06:28:25;;;;;;;10.25;3.60;;;;;;;17.81;68.89;97946.50;5050091;28;20439;-82
2023/07/01 06:30:51;;;;;;;7.88;3.83;;;;;;;17.83;68.03;97938.88;5053017;28;20029;-82
2023/07/01 06:33:16;;;;;;;4.85;3.22;;;;;;;17.95;66.87;97949.88;5041119;28;20115;-82
2023/07/01 06:35:42;;;;;;;8.68;3.30;;;;;;;17.90;66.41;97942.72;5060414;28;20020;-81
2023/07/01 06:38:08;;;;;;;4.78;2.78;;;;;;;17.93;66.32;97946.69;5038250;28;20044;-82
2023/07/01 06:40:33;;;;;;;5.93;3.00;;;;;;;17.94;65.96;97949.06;5058098;28;20029;-82
2023/07/01 06:42:59;;;;;;;4.53;3.35;;;;;;;17.91;65.57;97946.19;5039590;28;20127;-82
2023/07/01 06:45:25;;;;;;;2.70;2.50;;;;;;;17.95;65.55;97947.16;5042671;28;20119;-81
2023/07/01 06:47:50;;;;;;;3.42;3.13;;;;;;;17.86;65.23;97927.47;5065581;28;20107;-81
2023/07/01 06:50:15;;;;;;;5.63;2.90;;;;;;;17.95;64.20;97937.13;5025753;28;20056;-81
2023/07/01 06:52:41;;;;;;;2.90;2.70;;;;;;;17.91;64.34;97933.50;5034974;28;21000;-81
2023/07/01 06:55:07;;;;;;;11.57;3.45;;;;;;;17.93;63.94;97927.78;5048352;28;20423;-81
2023/07/01 06:57:33;;;;;;;6.57;3.00;;;;;;;18.10;63.92;97926.97;5036587;28;20028;-81
2023/07/01 06:59:59;;;;;;;9.73;3.03;;;;;;;18.27;63.26;97924.25;5052342;28;20395;-81
2023/07/01 07:02:25;;;;;;;5.20;3.22;;;;;;;18.33;64.86;97931.88;5056692;28;20052;-81
2023/07/01 07:04:52;;;;;;;6.55;3.85;;;;;;;18.36;67.07;97911.53;5041715;28;20060;-81
2023/07/01 07:07:18;;;;;;;4.78;3.08;;;;;;;18.41;65.35;97914.84;5052579;28;20048;-81
2023/07/01 07:09:44;;;;;;;6.82;3.22;;;;;;;18.26;65.30;97911.88;5052827;28;20055;-81
2023/07/01 07:12:09;;;;;;;7.75;3.53;;;;;;;18.28;63.85;97918.50;5026893;28;20037;-81
2023/07/01 07:14:35;;;;;;;4.13;3.08;;;;;;;18.22;64.03;97914.41;5051898;28;20021;-82
2023/07/01 07:17:00;;;;;;;5.72;2.92;;;;;;;18.12;63.13;97900.44;5048305;28;20103;-81
2023/07/01 07:19:25;;;;;;;5.43;2.97;;;;;;;18.26;62.14;97914.56;5053239;28;20111;-81
2023/07/01 07:21:51;;;;;;;5.88;3.25;;;;;;;18.18;61.58;97909.97;5051289;28;20102;-81
2023/07/01 07:24:16;;;;;;;3.45;2.90;;;;;;;18.32;61.86;97902.47;5041352;28;20032;-81
2023/07/01 07:26:42;;;;;;;5.03;2.70;;;;;;;18.32;60.94;97905.19;5033685;28;20036;-81
2023/07/01 07:29:07;;;;;;;4.50;2.70;;;;;;;18.37;61.42;97900.38;5045294;28;20036;-81
2023/07/01 07:31:33;;;;;;;4.47;3.03;;;;;;;18.37;61.77;97899.63;5047357;28;20108;-81
2023/07/01 07:33:58;;;;;;;7.93;3.00;;;;;;;18.41;61.81;97901.31;5051134;28;20055;-82
2023/07/01 07:36:23;;;;;;;7.55;3.03;;;;;;;18.31;61.15;97901.69;5049210;28;20029;-81
2023/07/01 07:38:49;;;;;;;4.60;2.67;;;;;;;18.41;62.16;97895.16;5050303;28;20090;-81
2023/07/01 07:41:14;;;;;;;5.38;3.13;;;;;;;18.38;61.95;97893.88;5047116;28;20147;-83
2023/07/01 07:43:39;;;;;;;4.38;2.88;;;;;;;18.37;60.92;97883.41;5024762;28;20124;-82
2023/07/01 07:46:05;;;;;;;3.90;2.78;;;;;;;18.62;61.25;97894.16;5050654;28;20774;-82
2023/07/01 07:48:30;;;;;;;4.75;2.90;;;;;;;18.86;60.83;97884.66;5050968;28;20696;-82
2023/07/01 07:50:56;;;;;;;5.85;2.85;;;;;;;18.85;59.74;97874.97;5056718;28;20117;-82
2023/07/01 07:53:21;;;;;;;8.15;3.75;;;;;;;18.78;59.73;97888.22;5039667;28;20041;-82
2023/07/01 07:55:47;;;;;;;9.63;3.28;;;;;;;18.73;59.65;97886.47;5057006;28;20475;-82
2023/07/01 07:58:13;;;;;;;7.57;2.83;;;;;;;18.59;59.93;97869.66;5045129;28;21867;-81
2023/07/01 08:00:39;;;;;;;4.78;3.00;;;;;;;18.71;61.26;97858.97;5051544;28;20051;-82
2023/07/01 08:03:04;;;;;;;3.13;2.83;;;;;;;18.88;59.95;97868.91;5054974;28;20426;-82
2023/07/01 08:05:31;;;;;;;8.15;3.15;;;;;;;18.98;60.38;97861.22;5044185;28;20040;-82
2023/07/01 08:07:56;;;;;;;5.03;2.63;;;;;;;18.67;60.47;97852.63;5060506;28;21400;-82
2023/07/01 08:10:22;;;;;;;4.88;3.10;;;;;;;18.93;60.07;97856.00;5053894;28;20119;-82
2023/07/01 08:12:47;;;;;;;6.78;2.97;;;;;;;18.81;60.56;97858.59;5062142;28;20036;-82
2023/07/01 08:15:13;;;;;;;5.60;3.20;;;;;;;18.91;59.92;97860.94;5039484;28;21007;-82
2023/07/01 08:17:39;;;;;;;7.03;2.80;;;;;;;19.26;59.45;97850.72;5052787;28;20036;-82
2023/07/01 08:20:05;;;;;;;7.90;3.65;;;;;;;19.43;59.62;97845.19;5057177;28;20029;-82
2023/07/01 08:22:30;;;;;;;4.93;2.78;;;;;;;19.57;59.24;97844.94;5051750;28;20036;-82
2023/07/01 08:24:57;;;;;;;7.90;3.63;;;;;;;19.63;59.27;97849.81;5063994;28;20024;-82
2023/07/01 08:27:22;;;;;;;10.40;3.80;;;;;;;19.59;59.11;97850.81;5064886;28;20042;-82
2023/07/01 08:29:48;;;;;;;7.72;3.28;;;;;;;19.57;58.84;97844.94;5058948;28;20033;-82
2023/07/01 08:32:13;;;;;;;7.68;3.08;;;;;;;19.60;58.95;97845.06;5065345;28;20061;-82
2023/07/01 08:34:38;;;;;;;4.88;3.13;;;;;;;19.66;58.69;97837.53;5053759;28;20028;-81
2023/07/01 08:37:04;;;;;;;5.40;3.15;;;;;;;19.72;58.77;97834.31;5053572;28;20029;-81
2023/07/01 08:39:30;;;;;;;5.40;3.42;;;;;;;19.75;58.62;97838.25;5043731;28;20044;-81
2023/07/01 08:41:59;;;;;;;6.18;3.83;;;;;;;19.93;58.64;97847.81;5045666;28;20058;-81
2023/07/01 08:44:25;;;;;;;6.43;3.40;;;;;;;19.91;58.34;97822.97;5057839;28;20029;-81
2023/07/01 08:46:55;;;;;;;4.57;3.65;;;;;;;19.94;58.59;97846.69;5061539;28;20072;-81
2023/07/01 08:49:22;;;;;;;3.88;2.80;;;;;;;19.89;58.50;97834.13;5059305;28;20032;-80
2023/07/01 08:51:53;;;;;;;7.20;3.92;;;;;;;19.92;58.25;97829.97;5056572;28;20037;-80
2023/07/01 08:54:19;;;;;;;5.90;3.00;;;;;;;19.99;58.00;97824.78;5051644;28;20043;-81
2023/07/01 08:56:48;;;;;;;5.07;3.30;;;;;;;20.06;58.94;97822.34;5030650;28;20039;-81
2023/07/01 08:59:14;;;;;;;10.20;3.72;;;;;;;20.02;58.96;97821.41;5052422;28;20408;-81
2023/07/01 09:01:44;;;;;;;8.55;4.20;;;;;;;20.06;59.64;97825.84;5048058;28;20028;-80
2023/07/01 09:04:10;;;;;;;6.65;3.53;;;;;;;20.05;58.50;97804.50;5060031;28;20104;-80
2023/07/01 09:06:35;;;;;;;8.00;3.33;;;;;;;19.90;58.57;97818.66;5052714;28;20147;-81
2023/07/01 09:09:02;;;;;;;4.95;3.45;;;;;;;19.81;58.24;97796.31;5062386;28;20032;-80
2023/07/01 09:11:27;;;;;;;6.53;3.20;;;;;;;19.82;58.02;97806.00;5054651;28;20028;-80
2023/07/01 09:13:56;;;;;;;10.77;3.60;;;;;;;19.88;57.88;97810.06;5056852;28;20395;-80
2023/07/01 09:16:37;;;;;;;6.57;3.90;;;;;;;19.87;57.74;97806.59;5068469;28;20427;-80
2023/07/01 09:19:07;;;;;;;12.50;3.75;;;;;;;19.88;57.50;97804.66;5070612;28;20031;-80
2023/07/01 09:21:33;;;;;;;4.30;3.45;;;;;;;20.02;58.34;97807.88;5050788;28;20024;-80
2023/07/01 09:24:00;;;;;;;6.35;3.80;;;;;;;20.21;57.37;97819.00;5067166;28;20119;-80
2023/07/01 09:26:29;;;;;;;7.35;3.38;;;;;;;20.35;57.84;97821.41;5060824;28;20032;-80
2023/07/01 09:28:56;;;;;;;6.15;3.00;;;;;;;20.44;57.90;97813.97;5068521;28;20040;-80
2023/07/01 09:31:21;;;;;;;7.72;3.60;;;;;;;20.52;57.41;97803.03;5053190;28;20112;-80
2023/07/01 09:34:01;;;;;;;5.00;3.65;;;;;;;20.75;56.67;97814.22;5050953;28;20165;-80
2023/07/01 09:36:27;;;;;;;6.00;3.50;;;;;;;20.97;56.88;97821.88;5060529;28;20627;-80
2023/07/01 09:38:54;;;;;;;4.22;3.80;;;;;;;20.99;56.78;97816.13;5068899;28;20100;-80
2023/07/01 09:41:25;;;;;;;6.25;3.40;;;;;;;21.14;56.19;97812.75;5065097;28;20035;-80
2023/07/01 09:43:51;;;;;;;7.50;3.58;;;;;;;21.18;56.16;97810.91;5066056;28;20056;-81
2023/07/01 09:46:17;;;;;;;4.22;3.60;;;;;;;21.35;55.58;97807.94;5066902;28;20021;-80
2023/07/01 09:48:53;;;;;;;8.18;3.67;;;;;;;21.16;55.93;97797.69;5073497;28;20050;-80
2023/07/01 09:51:18;;;;;;;;;;;;;;;21.26;55.99;97810.78;5069112;28;20974;-80
2023/07/01 09:53:44;;;;;;;5.67;3.33;;;;;;;21.16;56.16;97813.19;5069943;28;20057;-81
2023/07/01 09:56:12;;;;;;;6.63;3.20;;;;;;;21.27;56.16;97798.00;5075153;28;20051;-80
2023/07/01 09:58:39;;;;;;;6.70;3.97;;;;;;;21.28;55.93;97802.28;5061273;28;20062;-80
2023/07/01 10:01:04;;;;;;;6.55;3.55;;;;;;;21.33;55.44;97796.63;5058073;28;20039;-80
2023/07/01 10:03:30;;;;;;;5.43;3.38;;;;;;;21.13;55.75;97797.56;5056002;28;20025;-80
2023/07/01 10:05:55;;;;;;;7.88;3.33;;;;;;;21.12;55.49;97796.00;5054572;28;20513;-80
2023/07/01 10:08:21;;;;;;;7.15;3.95;;;;;;;21.01;55.47;97800.28;5061414;28;20097;-80
2023/07/01 10:11:06;;;;;;;5.90;3.50;;;;;;;20.82;56.52;97807.09;5050392;28;20025;-80
2023/07/01 10:13:42;;;;;;;6.28;3.17;;;;;;;20.69;56.97;97800.09;5056438;28;20068;-80
2023/07/01 10:16:08;;;;;;;8.45;3.85;;;;;;;20.66;56.87;97797.28;5051923;28;20044;-80
2023/07/01 10:18:34;;;;;;;5.63;3.47;;;;;;;20.63;57.12;97792.50;5065037;28;20036;-80
2023/07/01 10:21:27;;;;;;;5.85;3.03;;;;;;;20.56;57.50;97795.78;5057757;28;20082;-81
2023/07/01 10:23:55;;;;;;;7.25;3.38;;;;;;;20.68;57.41;97792.28;5057260;28;20085;-80
2023/07/01 10:26:46;;;;;;;5.32;3.67;;;;;;;20.62;57.87;97786.28;5059937;28;20029;-79
2023/07/01 10:29:27;;;;;;;5.75;3.33;;;;;;;20.76;57.76;97792.19;5056073;28;20419;-80
2023/07/01 10:32:08;;;;;;;8.27;3.83;;;;;;;20.73;57.85;97792.84;5066443;28;20387;-80
2023/07/01 10:34:52;;;;;;;5.10;3.72;;;;;;;20.83;57.94;97800.53;5063126;28;20479;-80
2023/07/01 10:37:17;;;;;;;4.32;3.33;;;;;;;20.89;59.97;97788.31;5058053;28;20378;-80
2023/07/01 10:39:43;;;;;;;6.07;3.30;;;;;;;20.83;58.44;97784.25;5061267;28;20081;-80
2023/07/01 10:42:31;;;;;;;4.25;2.97;;;;;;;20.71;58.96;97773.41;5062831;28;20051;-80
2023/07/01 10:45:12;;;;;;;3.75;2.58;;;;;;;20.70;59.08;97774.56;5034012;28;20039;-79
2023/07/01 10:47:48;;;;;;;4.82;3.60;;;;;;;20.83;58.97;97770.69;5066062;28;20032;-80
2023/07/01 10:50:22;;;;;;;;;;;;;;;20.76;59.00;97775.09;5067072;28;20552;-80
2023/07/01 10:52:56;;;;;;;5.32;3.45;;;;;;;20.84;59.18;97769.56;5083750;28;19957;-80
2023/07/01 10:56:09;;;;;;;4.30;3.30;;;;;;;20.88;59.07;97767.75;5061998;28;20086;-80
2023/07/01 10:58:34;;;;;;;4.93;3.58;;;;;;;20.91;59.14;97769.78;5028926;28;20390;-80
2023/07/01 11:01:01;;;;;;;6.97;3.35;;;;;;;20.94;59.56;97760.16;5060627;28;20029;-80
2023/07/01 11:03:32;;;;;;;6.82;3.88;;;;;;;21.00;59.69;97758.00;5044245;28;20055;-80
2023/07/01 11:06:02;;;;;;;8.55;3.60;;;;;;;21.08;59.13;97762.56;5052594;28;20120;-80
2023/07/01 11:08:28;;;;;;;6.80;3.45;;;;;;;20.94;59.75;97757.47;5051975;28;20070;-80
2023/07/01 11:10:54;;;;;;;7.88;3.20;;;;;;;20.95;59.44;97755.53;5060511;28;20033;-81
2023/07/01 11:13:20;;;;;;;5.00;3.03;;;;;;;20.95;61.19;97744.69;5039576;28;20043;-80
2023/07/01 11:16:09;;;;;;;4.72;2.65;;;;;;;21.08;59.16;97749.75;5059701;28;20028;-80
2023/07/01 11:18:43;;;;;;;5.93;3.47;;;;;;;21.14;59.21;97748.41;5045497;28;20593;-80
2023/07/01 11:21:10;;;;;;;8.05;3.13;;;;;;;21.28;59.06;97748.78;5051936;28;20545;-80
2023/07/01 11:23:36;;;;;;;4.95;3.25;;;;;;;21.22;58.89;97736.59;5053153;28;20504;-81
2023/07/01 11:26:02;;;;;;;3.67;2.45;;;;;;;20.71;60.36;97740.88;5064841;28;20029;-81
2023/07/01 11:28:35;;;;;;;4.35;2.45;;;;;;;20.37;61.59;97738.63;5058196;28;20029;-81
2023/07/01 11:31:16;;;;;;;8.80;2.90;;;;;;;20.33;61.43;97742.34;5055799;28;20480;-81
2023/07/01 11:33:46;;;;;;;5.13;3.03;;;;;;;20.08;61.59;97747.72;5052652;28;20117;-81
2023/07/01 11:36:13;;;;;;;4.07;2.78;;;;;;;19.95;61.74;97743.41;5050711;28;20477;-81